Springfield, MO (65801)

1:15 PM CST on February 08, 2016 (GMT -0600)
Stone Meadow | | Change Station
CLOSE
Current Station
Personal Weather Station
Location: Springfield, MO
Elevation: 1253 ft
Nearby Weather Stations
Active Advisory: Wind Advisory

Elev 1253 ft 37.12 °N, 93.31 °W | Updated 27 seconds ago

Overcast
Overcast
33.6 °F
Feels Like 34 °F
N
0.0
Wind Variable Wind from NNW
Gusts 0.0 mph

Today
High -- | Low -- °F
--% Chance of Precip.
Yesterday
High -- | Low -- °F
Precip. -- in
Pressure 30.03 in
Visibility 10.0 miles
Clouds Overcast 4100 ft
Windchill 34 °F
Dew Point 18 °F
Humidity 52%
Rainfall 0.00 in
Snow Depth Not available.
7:09 AM 5:45 PM
New Moon, 0% visible
METAR KSGF 081852Z 32021G30KT 10SM OVC041 01/M09 A3000 RMK AO2 PK WND 32040/1806 SLP168 T00061089
Pressure 30.03 in
Visibility 10.0 miles
Clouds Overcast 4100 ft
Windchill 34 °F
Dew Point 18 °F
Humidity 52%
Rainfall 0.00 in
Snow Depth Not available.
7:09 AM 5:45 PM
New Moon, 0% visible
METAR KSGF 081852Z 32021G30KT 10SM OVC041 01/M09 A3000 RMK AO2 PK WND 32040/1806 SLP168 T00061089

10-Day Weather Forecast

Almanac

Astronomy

Feb. 08, 2016 Rise Set
Actual Time
Civil Twilight
Nautical Twilight
Astronomical Twilight
Moon
Length of Visible Light
Length of Day
Tomorrow will be .
, % of the Moon is Illuminated

Today's Extremes

State Highs State Lows

Community

WunderPhotos

Upload Photos

1,891,497 photos uploaded!

WunderBlog® & News

Nearby

Air Quality

  Air Quality AQ Index Pollutant
Not available.

Snow Depth

Station Depth Elevation

Earthquake Activity

City Distance Mag. Time & Date
Minimum magnitude displayed is 2.5.

Coastal Water Temperatures

Place Temperature

Stations

Nearby Weather Stations

Station Location Temp. Windchill Dew Point Humidity Wind Precip. Elev Updated Type
                   

Watches & Warnings

Wind Advisory
Issued: 12:50 PM CST Feb. 8, 2016 – National Weather Service

... Wind Advisory remains in effect until 6 PM CST this evening...

* timing... northwesterly winds will continue to be very gusty
through the remainder of the afternoon hours.

* Winds... northwesterly winds of 25 to 35 mph with gusts of 40
to 45 mph are expected.

* Impacts... strong Crosswinds on area highways will impact
travel including interstates 44 and 49... and Missouri state
highways 13... 54... 63... 65... and 60. High profile vehicles
will be especially impacted by the winds.

Precautionary/preparedness actions...

A Wind Advisory means that winds of 35 mph are expected.
Travelers should use extra caution.



Boxell